Time;durP1;ratioP1;P1;durP2;ratioP2;P2;SDS_P1;SDS_P2;PMS_P1;PMS_P2;Temp;Humidity;BMP_temperature;BMP_pressure;BME280_temperature;BME280_humidity;BME280_pressure;Samples;Min_cycle;Max_cycle;Signal;HPM_P1;HPM_P2
2022/05/15 00:02:28;;;;;;;6.73;4.47;;;;;;;;;;5034436;28;20202;-80
2022/05/15 00:04:56;;;;;;;7.87;4.53;;;;;;;;;;5033456;28;20637;-79
2022/05/15 00:07:23;;;;;;;17.20;6.43;;;;;;;;;;5033804;28;20296;-80
2022/05/15 00:09:50;;;;;;;4.73;4.37;;;;;;;;;;5031971;28;20206;-79
2022/05/15 00:12:20;;;;;;;5.20;4.80;;;;;;;;;;5033388;28;20203;-79
2022/05/15 00:14:48;;;;;;;7.77;5.27;;;;;;;;;;5038447;28;20572;-80
2022/05/15 00:17:15;;;;;;;5.73;4.97;;;;;;;;;;5054192;28;20220;-80
2022/05/15 00:19:44;;;;;;;6.40;5.57;;;;;;;;;;5053558;28;20281;-80
2022/05/15 00:22:13;;;;;;;5.60;5.20;;;;;;;;;;5053853;28;20202;-80
2022/05/15 00:24:41;;;;;;;5.93;5.47;;;;;;;;;;5053321;28;20259;-80
2022/05/15 00:27:08;;;;;;;6.43;5.73;;;;;;;;;;5053594;28;20265;-80
2022/05/15 00:29:37;;;;;;;7.50;6.70;;;;;;;;;;5053487;28;20198;-79
2022/05/15 00:32:04;;;;;;;14.50;6.77;;;;;;;;;;5053679;28;20202;-80
2022/05/15 00:34:32;;;;;;;5.70;5.20;;;;;;;;;;5053159;28;20285;-80
2022/05/15 00:37:00;;;;;;;6.03;5.50;;;;;;;;;;5053485;28;20194;-80
2022/05/15 00:39:28;;;;;;;6.00;5.50;;;;;;;;;;5053188;28;20293;-80
2022/05/15 00:41:55;;;;;;;7.30;6.60;;;;;;;;;;5053356;28;20284;-80
2022/05/15 00:44:22;;;;;;;8.03;6.40;;;;;;;;;;5052906;28;20266;-79
2022/05/15 00:46:50;;;;;;;6.80;6.10;;;;;;;;;;5053276;28;20236;-80
2022/05/15 00:49:17;;;;;;;6.03;5.53;;;;;;;;;;5053325;28;20236;-79
2022/05/15 00:51:47;;;;;;;6.63;5.97;;;;;;;;;;5052971;28;20237;-80
2022/05/15 00:54:19;;;;;;;6.27;5.67;;;;;;;;;;5053030;28;20285;-79
2022/05/15 00:56:49;;;;;;;7.50;6.40;;;;;;;;;;5052850;28;20570;-80
2022/05/15 00:59:19;;;;;;;10.20;6.13;;;;;;;;;;5053247;28;20574;-79
2022/05/15 01:01:46;;;;;;;7.10;6.40;;;;;;;;;;5052801;28;20284;-80
2022/05/15 01:04:14;;;;;;;7.50;6.80;;;;;;;;;;5052809;28;20198;-80
2022/05/15 01:06:43;;;;;;;6.87;6.27;;;;;;;;;;5052808;28;20313;-80
2022/05/15 01:09:11;;;;;;;7.80;5.77;;;;;;;;;;5052734;28;20289;-79
2022/05/15 01:11:40;;;;;;;7.63;6.93;;;;;;;;;;5052605;28;20285;-80
2022/05/15 01:14:11;;;;;;;7.17;6.43;;;;;;;;;;5052564;28;20198;-80
2022/05/15 01:16:38;;;;;;;8.33;6.10;;;;;;;;;;5052559;28;20280;-80
2022/05/15 01:19:06;;;;;;;6.53;6.00;;;;;;;;;;5052014;28;20202;-80
2022/05/15 01:21:37;;;;;;;7.43;6.70;;;;;;;;;;5052924;28;20449;-80
2022/05/15 01:24:06;;;;;;;6.87;6.33;;;;;;;;;;5053026;28;20190;-79
2022/05/15 01:26:36;;;;;;;7.20;6.47;;;;;;;;;;5052203;28;20603;-80
2022/05/15 01:29:05;;;;;;;6.63;6.00;;;;;;;;;;5052608;28;20589;-79
2022/05/15 01:31:33;;;;;;;6.00;5.60;;;;;;;;;;5052873;28;20200;-80
2022/05/15 01:34:00;;;;;;;6.37;5.77;;;;;;;;;;5052313;28;20201;-80
2022/05/15 01:36:28;;;;;;;6.67;6.07;;;;;;;;;;5052451;28;20201;-80
2022/05/15 01:38:56;;;;;;;5.80;5.30;;;;;;;;;;5052444;28;20212;-80
2022/05/15 01:41:25;;;;;;;6.93;5.43;;;;;;;;;;5052265;28;20738;-80
2022/05/15 01:43:53;;;;;;;7.23;6.43;;;;;;;;;;5052182;28;20288;-80
2022/05/15 01:46:21;;;;;;;5.67;4.97;;;;;;;;;;5051842;28;20221;-80
2022/05/15 01:48:49;;;;;;;6.10;5.50;;;;;;;;;;5052121;28;20205;-80
2022/05/15 01:51:17;;;;;;;6.23;5.57;;;;;;;;;;5052019;28;20289;-80
2022/05/15 01:53:44;;;;;;;5.63;5.23;;;;;;;;;;5051824;28;20205;-80
2022/05/15 01:56:13;;;;;;;6.03;5.40;;;;;;;;;;5052030;28;20629;-80
2022/05/15 01:58:41;;;;;;;6.00;5.57;;;;;;;;;;5051839;28;20320;-80
2022/05/15 02:01:09;;;;;;;6.87;5.53;;;;;;;;;;5051790;28;20202;-80
2022/05/15 02:03:36;;;;;;;5.77;5.27;;;;;;;;;;5052101;28;20224;-80
2022/05/15 02:06:03;;;;;;;7.43;5.70;;;;;;;;;;5051516;28;20200;-80
2022/05/15 02:08:32;;;;;;;7.87;7.00;;;;;;;;;;5051664;28;20705;-80
2022/05/15 02:10:59;;;;;;;5.90;5.40;;;;;;;;;;5052091;28;20196;-80
2022/05/15 02:13:28;;;;;;;5.83;5.43;;;;;;;;;;5051659;28;20295;-80
2022/05/15 02:15:56;;;;;;;5.90;5.47;;;;;;;;;;5051913;28;20201;-80
2022/05/15 02:18:23;;;;;;;6.93;5.30;;;;;;;;;;5051687;28;20251;-80
2022/05/15 02:20:50;;;;;;;5.97;5.40;;;;;;;;;;5051564;28;20250;-80
2022/05/15 02:23:18;;;;;;;7.60;5.83;;;;;;;;;;5051599;28;20291;-80
2022/05/15 02:25:45;;;;;;;7.17;6.07;;;;;;;;;;5051570;28;20287;-80
2022/05/15 02:28:12;;;;;;;6.43;5.60;;;;;;;;;;5052655;28;20224;-80
2022/05/15 02:30:41;;;;;;;5.70;5.20;;;;;;;;;;5058102;28;20292;-80
2022/05/15 02:33:09;;;;;;;6.37;5.40;;;;;;;;;;5058131;28;20288;-80
2022/05/15 02:35:36;;;;;;;6.87;6.27;;;;;;;;;;5057813;28;20292;-80
2022/05/15 02:38:03;;;;;;;6.30;5.60;;;;;;;;;;5058145;28;20292;-81
2022/05/15 02:40:30;;;;;;;8.43;6.60;;;;;;;;;;5057958;28;20743;-80
2022/05/15 02:42:57;;;;;;;6.30;5.70;;;;;;;;;;5058051;28;20254;-80
2022/05/15 02:45:25;;;;;;;20.77;5.80;;;;;;;;;;5057976;28;20807;-80
2022/05/15 02:47:54;;;;;;;6.87;6.27;;;;;;;;;;5057728;28;20705;-79
2022/05/15 02:53:07;;;;;;;6.40;5.80;;;;;;;;;;5058461;28;20664;-80
2022/05/15 02:55:34;;;;;;;6.80;6.20;;;;;;;;;;5057977;28;20202;-80
2022/05/15 02:58:02;;;;;;;8.07;6.03;;;;;;;;;;5057525;28;20287;-80
2022/05/15 03:00:30;;;;;;;6.43;5.90;;;;;;;;;;5058188;28;20586;-80
2022/05/15 03:02:59;;;;;;;6.50;5.87;;;;;;;;;;5058371;28;20668;-80
2022/05/15 03:05:26;;;;;;;6.40;5.80;;;;;;;;;;5057778;28;20264;-80
2022/05/15 03:07:53;;;;;;;5.87;5.37;;;;;;;;;;5058252;28;20596;-80
2022/05/15 03:10:22;;;;;;;7.20;6.57;;;;;;;;;;5057539;28;20223;-81
2022/05/15 03:12:50;;;;;;;6.77;5.97;;;;;;;;;;5058286;28;20201;-80
2022/05/15 03:15:19;;;;;;;7.17;6.47;;;;;;;;;;5057762;28;20212;-80
2022/05/15 03:17:46;;;;;;;6.80;6.20;;;;;;;;;;5058011;28;20197;-80
2022/05/15 03:20:17;;;;;;;6.60;6.00;;;;;;;;;;5057652;28;20205;-80
2022/05/15 03:22:44;;;;;;;6.57;6.00;;;;;;;;;;5057921;28;20288;-80
2022/05/15 03:25:12;;;;;;;6.47;5.87;;;;;;;;;;5057609;28;20193;-80
2022/05/15 03:27:39;;;;;;;6.53;6.00;;;;;;;;;;5058033;28;20224;-80
2022/05/15 03:30:07;;;;;;;7.37;6.77;;;;;;;;;;5057300;28;20198;-80
2022/05/15 03:32:35;;;;;;;7.53;6.93;;;;;;;;;;5057801;28;20761;-80
2022/05/15 03:35:03;;;;;;;6.40;5.90;;;;;;;;;;5055718;28;20217;-80
2022/05/15 03:37:32;;;;;;;8.47;5.63;;;;;;;;;;5054277;28;20258;-80
2022/05/15 03:39:59;;;;;;;6.50;6.00;;;;;;;;;;5055616;28;20196;-80
2022/05/15 03:42:27;;;;;;;6.73;6.13;;;;;;;;;;5054825;28;20620;-80
2022/05/15 03:44:54;;;;;;;7.47;6.77;;;;;;;;;;5054291;28;20199;-80
2022/05/15 03:47:21;;;;;;;7.27;6.57;;;;;;;;;;5054366;28;20259;-80
2022/05/15 03:49:49;;;;;;;7.40;6.80;;;;;;;;;;5053997;28;20209;-80
2022/05/15 03:52:17;;;;;;;8.07;6.93;;;;;;;;;;5054086;28;20685;-81
2022/05/15 03:54:46;;;;;;;9.57;7.70;;;;;;;;;;5054016;28;20205;-80
2022/05/15 03:57:14;;;;;;;8.10;6.67;;;;;;;;;;5053937;28;20236;-81
2022/05/15 03:59:42;;;;;;;6.70;6.13;;;;;;;;;;5053962;28;20197;-79
2022/05/15 04:02:10;;;;;;;7.30;5.80;;;;;;;;;;5054199;28;20283;-79
2022/05/15 04:04:38;;;;;;;7.43;5.37;;;;;;;;;;5053572;28;20204;-80
2022/05/15 04:07:05;;;;;;;7.10;6.50;;;;;;;;;;5053789;28;20709;-80
2022/05/15 04:09:35;;;;;;;6.97;6.37;;;;;;;;;;5053483;28;20213;-79
2022/05/15 04:12:05;;;;;;;7.50;6.80;;;;;;;;;;5054542;28;20197;-81
2022/05/15 04:14:32;;;;;;;7.77;6.97;;;;;;;;;;5053611;28;20203;-81
2022/05/15 04:17:00;;;;;;;8.17;7.03;;;;;;;;;;5053763;28;20288;-81
2022/05/15 04:19:27;;;;;;;8.10;7.40;;;;;;;;;;5053480;28;20207;-81
2022/05/15 04:21:57;;;;;;;8.17;7.27;;;;;;;;;;5053472;28;20205;-81
2022/05/15 04:24:24;;;;;;;8.27;7.53;;;;;;;;;;5053399;28;20196;-81
2022/05/15 04:26:52;;;;;;;7.67;7.07;;;;;;;;;;5053867;28;20232;-81
2022/05/15 04:29:20;;;;;;;7.70;7.00;;;;;;;;;;5053394;28;20221;-81
2022/05/15 04:31:48;;;;;;;7.97;7.27;;;;;;;;;;5053269;28;20726;-81
2022/05/15 04:34:15;;;;;;;8.03;7.33;;;;;;;;;;5053272;28;20291;-81
2022/05/15 04:36:42;;;;;;;7.77;7.07;;;;;;;;;;5053482;28;20211;-81
2022/05/15 04:39:09;;;;;;;7.20;6.60;;;;;;;;;;5053420;28;20222;-81
2022/05/15 04:41:36;;;;;;;6.87;6.27;;;;;;;;;;5053770;28;20292;-81
2022/05/15 04:44:04;;;;;;;7.73;7.10;;;;;;;;;;5053136;28;20295;-81
2022/05/15 04:46:32;;;;;;;7.73;6.97;;;;;;;;;;5053270;28;20200;-81
2022/05/15 04:49:00;;;;;;;7.23;6.67;;;;;;;;;;5053194;28;20256;-81
2022/05/15 04:51:27;;;;;;;6.73;6.13;;;;;;;;;;5052551;28;20592;-81
2022/05/15 04:53:54;;;;;;;7.30;6.67;;;;;;;;;;5052332;28;20396;-81
2022/05/15 04:56:22;;;;;;;6.83;5.90;;;;;;;;;;5053372;28;20198;-81
2022/05/15 04:58:50;;;;;;;6.60;6.00;;;;;;;;;;5049378;28;20278;-81
2022/05/15 05:01:18;;;;;;;7.93;7.13;;;;;;;;;;5050541;28;20252;-81
2022/05/15 05:03:46;;;;;;;8.47;7.77;;;;;;;;;;5049098;28;20208;-82
2022/05/15 05:06:13;;;;;;;8.13;7.13;;;;;;;;;;5032117;28;20212;-81
2022/05/15 05:08:40;;;;;;;7.00;6.40;;;;;;;;;;5047824;28;20306;-81
2022/05/15 05:11:08;;;;;;;7.13;6.53;;;;;;;;;;5052664;28;20329;-81
2022/05/15 05:13:35;;;;;;;9.37;6.83;;;;;;;;;;5052716;28;20205;-81
2022/05/15 05:16:02;;;;;;;8.47;7.67;;;;;;;;;;5052869;28;20196;-81
2022/05/15 05:18:29;;;;;;;7.87;7.27;;;;;;;;;;5052651;28;20661;-81
2022/05/15 05:20:58;;;;;;;6.97;6.27;;;;;;;;;;5052520;28;20207;-81
2022/05/15 05:23:25;;;;;;;7.87;7.17;;;;;;;;;;5052818;28;20198;-81
2022/05/15 05:25:52;;;;;;;8.33;7.53;;;;;;;;;;5052897;28;20205;-81
2022/05/15 05:28:20;;;;;;;7.63;6.93;;;;;;;;;;5052229;28;20319;-81
2022/05/15 05:30:47;;;;;;;8.07;7.37;;;;;;;;;;5052525;28;20200;-81
2022/05/15 05:33:14;;;;;;;7.53;6.83;;;;;;;;;;5052333;28;20282;-80
2022/05/15 05:35:42;;;;;;;8.23;7.53;;;;;;;;;;5052336;28;20289;-81
2022/05/15 05:38:11;;;;;;;10.77;7.50;;;;;;;;;;5052322;28;20662;-80
2022/05/15 05:40:38;;;;;;;8.53;7.83;;;;;;;;;;5051834;28;20204;-81
2022/05/15 05:43:06;;;;;;;8.87;7.93;;;;;;;;;;5052164;28;20201;-81
2022/05/15 05:45:33;;;;;;;7.50;6.80;;;;;;;;;;5051882;28;20233;-81
2022/05/15 05:48:00;;;;;;;7.73;7.13;;;;;;;;;;5052066;28;20222;-81
2022/05/15 05:50:28;;;;;;;8.53;7.63;;;;;;;;;;5052005;28;20292;-81
2022/05/15 05:52:57;;;;;;;7.43;6.73;;;;;;;;;;5051770;28;20225;-80
2022/05/15 05:55:26;;;;;;;7.50;6.90;;;;;;;;;;5051951;28;20220;-79
2022/05/15 05:57:54;;;;;;;7.00;6.40;;;;;;;;;;5051449;28;20279;-79
2022/05/15 06:00:24;;;;;;;7.50;6.80;;;;;;;;;;5038398;28;20238;-79
2022/05/15 06:02:52;;;;;;;7.40;6.70;;;;;;;;;;5031793;28;20245;-79
2022/05/15 06:05:19;;;;;;;10.97;7.60;;;;;;;;;;5031549;28;20290;-79
2022/05/15 06:07:46;;;;;;;7.07;6.33;;;;;;;;;;5031850;28;20226;-79
2022/05/15 06:10:15;;;;;;;7.67;6.63;;;;;;;;;;5031926;28;20200;-79
2022/05/15 06:12:44;;;;;;;7.27;6.67;;;;;;;;;;5031731;28;20708;-79
2022/05/15 06:15:11;;;;;;;6.30;5.70;;;;;;;;;;5031698;28;20198;-79
2022/05/15 06:17:39;;;;;;;6.33;5.83;;;;;;;;;;5031808;28;20285;-79
2022/05/15 06:20:09;;;;;;;6.03;5.50;;;;;;;;;;5031534;28;20206;-79
2022/05/15 06:22:36;;;;;;;13.87;7.90;;;;;;;;;;5031528;28;20293;-79
2022/05/15 06:25:04;;;;;;;8.57;6.43;;;;;;;;;;5045564;28;20592;-79
2022/05/15 06:27:31;;;;;;;6.80;6.30;;;;;;;;;;5051635;28;20221;-79
2022/05/15 06:30:00;;;;;;;7.00;6.30;;;;;;;;;;5051746;28;20201;-79
2022/05/15 06:32:27;;;;;;;6.77;6.10;;;;;;;;;;5051654;28;20289;-79
2022/05/15 06:34:54;;;;;;;6.67;6.17;;;;;;;;;;5051163;28;20280;-79
2022/05/15 06:37:21;;;;;;;6.70;6.10;;;;;;;;;;5051570;28;20237;-79
2022/05/15 06:39:49;;;;;;;6.20;5.67;;;;;;;;;;5041568;28;20211;-79
2022/05/15 06:42:16;;;;;;;6.07;5.47;;;;;;;;;;5031510;28;20689;-79
2022/05/15 06:44:43;;;;;;;6.43;5.47;;;;;;;;;;5031497;28;20200;-79
2022/05/15 06:47:12;;;;;;;6.07;5.57;;;;;;;;;;5031541;28;20230;-79
2022/05/15 06:49:39;;;;;;;6.73;6.00;;;;;;;;;;5031394;28;20284;-80
2022/05/15 06:52:07;;;;;;;6.33;5.60;;;;;;;;;;5031465;28;20239;-79
2022/05/15 06:54:34;;;;;;;6.30;5.80;;;;;;;;;;5043864;28;20660;-79
2022/05/15 06:59:46;;;;;;;7.10;6.40;;;;;;;;;;5051640;28;20174;-79
2022/05/15 07:02:15;;;;;;;9.27;6.33;;;;;;;;;;5051323;28;20209;-79
2022/05/15 07:04:42;;;;;;;6.60;5.90;;;;;;;;;;5051408;28;20285;-79
2022/05/15 07:07:10;;;;;;;7.63;5.63;;;;;;;;;;5050544;28;20320;-79
2022/05/15 07:09:37;;;;;;;6.43;5.83;;;;;;;;;;5051604;28;20283;-79
2022/05/15 07:12:06;;;;;;;6.07;5.67;;;;;;;;;;5051398;28;20198;-79
2022/05/15 07:14:34;;;;;;;6.57;5.97;;;;;;;;;;5051209;28;20705;-79
2022/05/15 07:17:01;;;;;;;6.00;5.50;;;;;;;;;;5054928;28;20198;-80
2022/05/15 07:19:30;;;;;;;5.87;5.27;;;;;;;;;;5054683;28;20472;-79
2022/05/15 07:21:57;;;;;;;5.80;5.27;;;;;;;;;;5055046;28;20206;-79
2022/05/15 07:24:25;;;;;;;9.03;5.33;;;;;;;;;;5055137;28;20293;-80
2022/05/15 07:26:52;;;;;;;5.90;5.40;;;;;;;;;;5055170;28;20198;-79
2022/05/15 07:29:20;;;;;;;5.97;4.77;;;;;;;;;;5054618;28;20235;-79
2022/05/15 07:31:50;;;;;;;5.50;5.10;;;;;;;;;;5054821;28;20288;-80
2022/05/15 07:34:17;;;;;;;7.30;5.20;;;;;;;;;;5054736;28;20580;-80
2022/05/15 07:36:50;;;;;;;6.87;5.83;;;;;;;;;;5054711;28;20290;-79
2022/05/15 07:39:18;;;;;;;6.10;5.17;;;;;;;;;;5053848;28;20571;-80
2022/05/15 07:41:45;;;;;;;8.70;5.30;;;;;;;;;;5054661;28;20216;-81
2022/05/15 07:44:12;;;;;;;5.80;5.30;;;;;;;;;;5054605;28;20226;-81
2022/05/15 07:46:41;;;;;;;11.97;5.30;;;;;;;;;;5054531;28;20205;-81
2022/05/15 07:49:08;;;;;;;5.57;5.07;;;;;;;;;;5054085;28;20276;-81
2022/05/15 07:51:35;;;;;;;6.60;5.27;;;;;;;;;;5054357;28;20198;-81
2022/05/15 07:54:04;;;;;;;6.10;5.60;;;;;;;;;;5054104;28;20662;-81
2022/05/15 07:56:31;;;;;;;5.70;5.20;;;;;;;;;;5054073;28;20198;-81
2022/05/15 07:58:59;;;;;;;7.83;6.07;;;;;;;;;;5014503;28;20203;-81
2022/05/15 08:01:26;;;;;;;6.87;5.80;;;;;;;;;;5014500;28;20719;-81
2022/05/15 08:03:53;;;;;;;6.27;5.70;;;;;;;;;;5014777;28;20568;-81
2022/05/15 08:09:08;;;;;;;7.03;6.40;;;;;;;;;;5014253;28;20227;-81
2022/05/15 08:11:36;;;;;;;9.93;8.17;;;;;;;;;;5014726;28;20205;-81
2022/05/15 08:14:05;;;;;;;7.20;6.50;;;;;;;;;;5014608;28;20299;-81
2022/05/15 08:16:35;;;;;;;7.10;6.10;;;;;;;;;;5014056;28;20616;-81
2022/05/15 08:24:32;;;;;;;5.80;5.33;;;;;;;;;;5014072;28;20191;-81
2022/05/15 08:26:59;;;;;;;6.97;6.40;;;;;;;;;;5013815;28;20582;-82
2022/05/15 08:29:27;;;;;;;5.90;5.30;;;;;;;;;;5013806;28;20230;-81
2022/05/15 08:31:54;;;;;;;8.10;5.23;;;;;;;;;;5014288;28;20250;-81
2022/05/15 08:34:22;;;;;;;6.80;6.10;;;;;;;;;;5013309;28;20195;-81
2022/05/15 08:36:49;;;;;;;6.30;5.70;;;;;;;;;;4994867;28;20673;-81
2022/05/15 08:39:16;;;;;;;5.60;5.20;;;;;;;;;;4991375;28;20208;-82
2022/05/15 08:41:51;;;;;;;9.50;6.03;;;;;;;;;;4994183;28;20219;-82
2022/05/15 08:44:21;;;;;;;6.60;6.00;;;;;;;;;;4993811;28;20189;-82
2022/05/15 08:47:17;;;;;;;5.53;5.10;;;;;;;;;;4994217;28;20284;-82
2022/05/15 08:49:47;;;;;;;7.53;5.73;;;;;;;;;;4994223;28;20303;-82
2022/05/15 08:52:18;;;;;;;6.20;5.70;;;;;;;;;;4994351;28;20195;-82
2022/05/15 08:54:57;;;;;;;7.30;5.50;;;;;;;;;;5005262;28;20195;-82
2022/05/15 08:57:36;;;;;;;7.63;5.33;;;;;;;;;;5027516;28;20714;-83
2022/05/15 09:00:10;;;;;;;5.63;5.03;;;;;;;;;;5035148;28;20190;-84
2022/05/15 09:02:40;;;;;;;5.40;4.90;;;;;;;;;;5045611;28;20237;-82
2022/05/15 09:05:09;;;;;;;7.57;5.30;;;;;;;;;;5052531;28;20193;-82
2022/05/15 09:07:53;;;;;;;7.80;6.63;;;;;;;;;;5053092;28;20693;-83
2022/05/15 09:10:34;;;;;;;6.53;5.93;;;;;;;;;;5052671;28;20354;-83
2022/05/15 09:13:08;;;;;;;5.70;5.23;;;;;;;;;;5052501;28;20280;-82
2022/05/15 09:15:37;;;;;;;6.17;5.43;;;;;;;;;;5052467;28;20186;-81
2022/05/15 09:18:06;;;;;;;6.53;5.93;;;;;;;;;;5052645;28;20685;-80
2022/05/15 09:20:42;;;;;;;9.40;5.70;;;;;;;;;;5052585;28;20197;-80
2022/05/15 09:23:18;;;;;;;5.57;5.07;;;;;;;;;;5052100;28;20588;-79
2022/05/15 09:25:51;;;;;;;4.67;4.30;;;;;;;;;;5052273;28;20189;-80
2022/05/15 09:28:20;;;;;;;6.63;5.03;;;;;;;;;;5052372;28;20193;-80
2022/05/15 09:30:50;;;;;;;5.70;5.20;;;;;;;;;;5051988;28;20701;-80
2022/05/15 09:33:25;;;;;;;8.87;5.50;;;;;;;;;;5049555;28;20202;-79
2022/05/15 09:35:52;;;;;;;5.87;5.37;;;;;;;;;;5050449;28;20277;-79
2022/05/15 09:38:28;;;;;;;5.70;5.03;;;;;;;;;;5041551;28;20308;-80
2022/05/15 09:43:51;;;;;;;12.07;6.07;;;;;;;;;;5033901;28;20677;-80
2022/05/15 09:46:21;;;;;;;6.07;5.57;;;;;;;;;;5051975;28;20193;-80
2022/05/15 09:48:53;;;;;;;5.77;5.17;;;;;;;;;;5051304;28;21059;-80
2022/05/15 09:51:29;;;;;;;11.73;7.00;;;;;;;;;;5053665;28;20635;-82
2022/05/15 09:53:58;;;;;;;9.73;4.63;;;;;;;;;;5050924;28;20292;-81
2022/05/15 09:56:30;;;;;;;5.70;5.07;;;;;;;;;;5040789;28;20211;-81
2022/05/15 09:59:01;;;;;;;5.50;5.10;;;;;;;;;;5034283;28;20230;-80
2022/05/15 10:01:36;;;;;;;5.50;4.60;;;;;;;;;;5049327;28;20216;-81
2022/05/15 10:04:05;;;;;;;6.97;5.10;;;;;;;;;;5052173;28;20189;-81
2022/05/15 10:06:37;;;;;;;5.97;5.40;;;;;;;;;;5052171;28;20198;-82
2022/05/15 10:09:12;;;;;;;4.80;4.40;;;;;;;;;;5049049;28;20213;-83
2022/05/15 10:11:42;;;;;;;4.80;4.47;;;;;;;;;;5052201;28;20609;-83
2022/05/15 10:14:21;;;;;;;5.70;5.23;;;;;;;;;;5052090;28;20226;-83
2022/05/15 10:16:52;;;;;;;9.37;5.30;;;;;;;;;;5051308;28;20196;-83
2022/05/15 10:19:24;;;;;;;5.53;5.03;;;;;;;;;;5051624;28;20678;-83
2022/05/15 10:21:54;;;;;;;5.57;4.77;;;;;;;;;;5051931;28;20231;-83
2022/05/15 10:24:24;;;;;;;5.67;5.10;;;;;;;;;;5051743;28;20255;-83
2022/05/15 10:26:58;;;;;;;6.50;5.90;;;;;;;;;;5051717;28;20658;-83
2022/05/15 10:29:30;;;;;;;5.33;4.90;;;;;;;;;;5051374;28;20712;-83
2022/05/15 10:32:00;;;;;;;6.10;5.60;;;;;;;;;;5051779;28;20273;-82
2022/05/15 10:34:29;;;;;;;4.83;4.37;;;;;;;;;;5051626;28;20289;-83
2022/05/15 10:37:08;;;;;;;6.57;5.27;;;;;;;;;;5051631;28;20212;-83
2022/05/15 10:39:43;;;;;;;6.00;5.40;;;;;;;;;;5051627;28;20193;-82
2022/05/15 10:42:18;;;;;;;7.23;4.70;;;;;;;;;;5051424;28;20190;-82
2022/05/15 10:44:55;;;;;;;5.07;4.67;;;;;;;;;;5040150;28;20293;-83
2022/05/15 10:47:26;;;;;;;5.43;4.83;;;;;;;;;;5041693;28;20209;-83
2022/05/15 10:50:18;;;;;;;5.20;4.70;;;;;;;;;;5052382;28;20238;-82
2022/05/15 10:52:56;;;;;;;8.03;4.67;;;;;;;;;;5052606;28;20669;-83
2022/05/15 10:58:26;;;;;;;7.43;4.90;;;;;;;;;;4986185;28;20312;-82
2022/05/15 11:01:02;;;;;;;6.23;5.63;;;;;;;;;;5034062;28;20202;-82
2022/05/15 11:03:55;;;;;;;5.33;4.73;;;;;;;;;;5035553;28;20277;-83
2022/05/15 11:06:35;;;;;;;5.33;4.43;;;;;;;;;;5032500;28;20199;-83
2022/05/15 11:09:08;;;;;;;5.13;4.73;;;;;;;;;;5035229;28;20301;-83
2022/05/15 11:11:47;;;;;;;5.50;5.10;;;;;;;;;;5035266;28;20575;-82
2022/05/15 11:14:21;;;;;;;5.70;5.03;;;;;;;;;;5035344;28;20285;-82
2022/05/15 11:17:05;;;;;;;4.23;3.93;;;;;;;;;;5044025;28;20201;-82
2022/05/15 11:19:36;;;;;;;5.90;5.13;;;;;;;;;;5038002;28;20237;-82
2022/05/15 11:22:21;;;;;;;4.57;4.07;;;;;;;;;;5035118;28;20183;-82
2022/05/15 11:24:52;;;;;;;5.80;4.43;;;;;;;;;;5036369;28;20199;-83
2022/05/15 11:27:26;;;;;;;4.90;4.43;;;;;;;;;;5053562;28;20244;-82
2022/05/15 11:29:54;;;;;;;5.07;4.10;;;;;;;;;;5040826;28;20256;-82
2022/05/15 11:32:41;;;;;;;4.80;4.50;;;;;;;;;;5054831;28;20567;-82
2022/05/15 11:35:28;;;;;;;6.97;4.03;;;;;;;;;;5034405;28;20740;-82
2022/05/15 11:38:05;;;;;;;5.23;4.73;;;;;;;;;;5034970;28;20187;-82
2022/05/15 11:40:36;;;;;;;5.43;4.03;;;;;;;;;;5045541;28;20292;-82
2022/05/15 11:43:34;;;;;;;4.50;4.20;;;;;;;;;;5055027;28;20624;-82
2022/05/15 11:46:04;;;;;;;5.97;4.40;;;;;;;;;;5054772;28;20240;-82
2022/05/15 11:48:34;;;;;;;9.57;4.00;;;;;;;;;;5054312;28;20288;-82
2022/05/15 11:51:02;;;;;;;5.77;4.40;;;;;;;;;;5054836;28;20226;-82
2022/05/15 11:53:32;;;;;;;4.27;3.87;;;;;;;;;;5054810;28;20248;-82
2022/05/15 11:56:00;;;;;;;4.77;4.37;;;;;;;;;;5054131;28;20284;-82
2022/05/15 11:58:36;;;;;;;4.30;4.00;;;;;;;;;;5054029;28;20226;-82
2022/05/15 12:01:12;;;;;;;5.47;4.97;;;;;;;;;;5053785;28;20569;-82
2022/05/15 12:03:58;;;;;;;6.07;4.60;;;;;;;;;;5054346;28;20189;-82
2022/05/15 12:06:28;;;;;;;6.83;4.90;;;;;;;;;;5054109;28;20654;-82
2022/05/15 12:09:31;;;;;;;8.40;4.93;;;;;;;;;;5053400;28;20200;-82
2022/05/15 12:12:45;;;;;;;5.90;4.70;;;;;;;;;;5054230;28;20190;-82
2022/05/15 12:15:27;;;;;;;9.23;6.40;;;;;;;;;;4995824;28;20194;-82
2022/05/15 12:17:59;;;;;;;18.37;7.43;;;;;;;;;;5054084;28;20185;-84
2022/05/15 12:20:36;;;;;;;5.33;4.77;;;;;;;;;;5053793;28;20631;-83
2022/05/15 12:23:06;;;;;;;10.60;6.80;;;;;;;;;;5053891;28;20188;-83
2022/05/15 12:25:36;;;;;;;20.13;8.37;;;;;;;;;;5054097;28;20293;-85
2022/05/15 12:30:54;;;;;;;6.23;4.97;;;;;;;;;;5053591;28;20228;-85
2022/05/15 12:33:24;;;;;;;5.43;4.93;;;;;;;;;;5053959;28;20200;-82
2022/05/15 12:35:53;;;;;;;9.00;5.60;;;;;;;;;;5053467;28;20197;-80
2022/05/15 12:38:23;;;;;;;12.63;6.87;;;;;;;;;;5053388;28;20213;-80
2022/05/15 12:40:59;;;;;;;6.60;5.43;;;;;;;;;;5053305;28;20198;-83
2022/05/15 12:43:28;;;;;;;10.63;6.33;;;;;;;;;;5053690;28;20186;-82
2022/05/15 12:45:57;;;;;;;8.37;5.90;;;;;;;;;;5053287;28;20284;-83
2022/05/15 12:48:24;;;;;;;5.57;4.63;;;;;;;;;;5053464;28;20234;-83
2022/05/15 12:51:01;;;;;;;11.47;6.00;;;;;;;;;;5053107;28;20221;-83
2022/05/15 12:53:31;;;;;;;9.23;6.37;;;;;;;;;;5053286;28;20193;-80
2022/05/15 12:56:09;;;;;;;6.60;5.53;;;;;;;;;;5053133;28;20240;-82
2022/05/15 12:58:36;;;;;;;8.70;5.23;;;;;;;;;;5052975;28;20291;-88
2022/05/15 13:01:05;;;;;;;10.43;6.40;;;;;;;;;;5053143;28;20197;-83
2022/05/15 13:03:33;;;;;;;8.87;6.00;;;;;;;;;;5053277;28;20670;-84
2022/05/15 13:06:03;;;;;;;5.07;4.37;;;;;;;;;;5036731;28;20206;-84
2022/05/15 13:08:43;;;;;;;5.43;4.57;;;;;;;;;;5047765;28;20202;-83
2022/05/15 13:11:18;;;;;;;9.83;4.13;;;;;;;;;;5052947;28;20241;-83
2022/05/15 13:13:46;;;;;;;3.40;3.10;;;;;;;;;;5048366;28;20200;-84
2022/05/15 13:16:17;;;;;;;5.77;4.23;;;;;;;;;;5049212;28;20207;-84
2022/05/15 13:18:47;;;;;;;4.00;3.60;;;;;;;;;;5043719;28;20232;-84
2022/05/15 13:21:22;;;;;;;4.33;3.93;;;;;;;;;;5052987;28;20224;-84
2022/05/15 13:23:50;;;;;;;5.50;4.37;;;;;;;;;;5052687;28;20684;-84
2022/05/15 13:26:22;;;;;;;3.67;3.37;;;;;;;;;;5052170;28;20201;-84
2022/05/15 13:28:50;;;;;;;3.93;3.40;;;;;;;;;;5052525;28;20277;-84
2022/05/15 13:31:17;;;;;;;4.50;4.17;;;;;;;;;;5052382;28;20268;-84
2022/05/15 13:33:46;;;;;;;5.87;4.80;;;;;;;;;;5052488;28;20644;-84
2022/05/15 13:36:17;;;;;;;4.47;4.07;;;;;;;;;;5051669;28;20259;-84
2022/05/15 13:44:13;;;;;;;8.37;7.57;;;;;;;;;;5032519;28;20194;-84
2022/05/15 13:46:43;;;;;;;7.07;6.47;;;;;;;;;;5032150;28;20203;-84
2022/05/15 13:49:13;;;;;;;5.37;4.90;;;;;;;;;;5034581;28;20566;-84
2022/05/15 13:51:44;;;;;;;7.70;5.20;;;;;;;;;;5044990;28;20229;-84
2022/05/15 13:54:14;;;;;;;7.33;5.60;;;;;;;;;;5052254;28;21037;-84
2022/05/15 13:56:41;;;;;;;6.20;5.60;;;;;;;;;;5052045;28;20259;-84
2022/05/15 13:59:34;;;;;;;5.37;4.40;;;;;;;;;;5052039;28;20285;-84
2022/05/15 14:02:07;;;;;;;11.50;7.70;;;;;;;;;;5052077;28;20198;-84
2022/05/15 14:04:34;;;;;;;10.50;9.13;;;;;;;;;;5051678;28;20197;-85
2022/05/15 14:07:03;;;;;;;7.10;6.50;;;;;;;;;;5051826;28;20233;-84
2022/05/15 14:09:45;;;;;;;6.67;6.07;;;;;;;;;;5051924;28;20197;-84
2022/05/15 14:12:13;;;;;;;6.60;6.00;;;;;;;;;;5052012;28;20204;-84
2022/05/15 14:14:48;;;;;;;6.93;6.33;;;;;;;;;;5051926;28;20198;-84
2022/05/15 14:17:18;;;;;;;8.07;6.00;;;;;;;;;;5051991;28;20197;-84
2022/05/15 14:19:55;;;;;;;6.83;6.30;;;;;;;;;;5052199;28;20193;-84
2022/05/15 14:22:24;;;;;;;5.93;5.53;;;;;;;;;;5052212;28;20185;-84
2022/05/15 14:24:51;;;;;;;6.20;5.80;;;;;;;;;;5051222;28;20197;-84
2022/05/15 14:27:19;;;;;;;7.97;7.27;;;;;;;;;;5051924;28;20296;-84
2022/05/15 14:29:46;;;;;;;8.13;7.33;;;;;;;;;;5051788;28;20197;-84
2022/05/15 14:32:19;;;;;;;8.67;7.70;;;;;;;;;;5051350;28;20289;-84
2022/05/15 14:34:47;;;;;;;7.83;7.10;;;;;;;;;;5051844;28;20610;-84
2022/05/15 14:37:14;;;;;;;9.30;8.57;;;;;;;;;;5051769;28;20674;-84
2022/05/15 14:39:43;;;;;;;10.53;9.57;;;;;;;;;;5051522;28;20228;-85
2022/05/15 14:42:11;;;;;;;10.03;9.10;;;;;;;;;;5051470;28;20552;-85
2022/05/15 14:44:38;;;;;;;9.07;8.23;;;;;;;;;;5051397;28;20237;-84
2022/05/15 14:47:08;;;;;;;10.27;8.10;;;;;;;;;;5051585;28;20292;-83
2022/05/15 14:49:36;;;;;;;8.33;7.70;;;;;;;;;;5051110;28;20648;-84
2022/05/15 14:52:03;;;;;;;8.73;8.07;;;;;;;;;;5047787;28;20223;-83
2022/05/15 14:54:32;;;;;;;8.77;7.90;;;;;;;;;;5042664;28;20588;-83
2022/05/15 14:57:02;;;;;;;8.43;7.63;;;;;;;;;;5051329;28;20244;-83
2022/05/15 14:59:32;;;;;;;9.37;8.57;;;;;;;;;;5051220;28;20202;-83
2022/05/15 15:01:59;;;;;;;10.43;9.53;;;;;;;;;;5051689;28;20607;-82
2022/05/15 15:04:27;;;;;;;9.63;8.80;;;;;;;;;;5051498;28;20578;-83
2022/05/15 15:06:54;;;;;;;9.20;8.33;;;;;;;;;;5051423;28;20654;-83
2022/05/15 15:09:21;;;;;;;10.23;8.20;;;;;;;;;;5051099;28;20201;-83
2022/05/15 15:11:50;;;;;;;9.67;8.97;;;;;;;;;;5051147;28;20275;-83
2022/05/15 15:14:19;;;;;;;10.00;9.00;;;;;;;;;;5051262;28;20221;-83
2022/05/15 15:16:50;;;;;;;8.73;8.03;;;;;;;;;;5051154;28;20194;-83
2022/05/15 15:19:22;;;;;;;8.77;8.07;;;;;;;;;;5051306;28;20186;-83
2022/05/15 15:21:50;;;;;;;9.33;8.53;;;;;;;;;;5051215;28;20700;-83
2022/05/15 15:24:18;;;;;;;9.73;8.93;;;;;;;;;;5050922;28;20671;-82
2022/05/15 15:26:45;;;;;;;9.40;8.07;;;;;;;;;;5050903;28;20202;-82
2022/05/15 15:29:15;;;;;;;10.43;9.53;;;;;;;;;;5051031;28;20237;-83